Time;durP1;ratioP1;P1;durP2;ratioP2;P2;SDS_P1;SDS_P2;PMS_P1;PMS_P2;Temp;Humidity;BMP_temperature;BMP_pressure;BME280_temperature;BME280_humidity;BME280_pressure;Samples;Min_cycle;Max_cycle;Signal;HPM_P1;HPM_P2
2023/07/09 00:02:12;;;;;;;8.40;4.93;;;20.50;99.90;;;19.53;100.00;97992.63;5039958;28;20042;-72
2023/07/09 00:04:40;;;;;;;10.27;6.07;;;20.40;99.90;;;19.33;100.00;97995.84;5029928;28;20114;-72
2023/07/09 00:07:18;;;;;;;9.25;4.65;;;20.30;99.90;;;19.29;100.00;97997.03;5043418;28;20122;-72
2023/07/09 00:09:46;;;;;;;11.05;5.57;;;20.30;99.90;;;19.27;100.00;98007.66;5050115;28;20044;-72
2023/07/09 00:12:16;;;;;;;8.88;4.93;;;20.20;99.90;;;19.23;100.00;98012.31;5044064;28;20067;-72
2023/07/09 00:14:44;;;;;;;7.53;5.05;;;20.20;99.90;;;19.26;100.00;98015.66;5045867;28;20603;-72
2023/07/09 00:17:37;;;;;;;10.20;5.30;;;20.30;99.90;;;19.20;100.00;98022.19;5045939;28;20079;-72
2023/07/09 00:20:11;;;;;;;8.30;4.53;;;20.20;99.90;;;19.29;100.00;98010.19;5041972;28;20060;-72
2023/07/09 00:22:39;;;;;;;9.10;4.35;;;20.20;99.90;;;19.28;100.00;98019.88;5042060;28;20052;-72
2023/07/09 00:25:13;;;;;;;8.15;4.97;;;20.20;99.90;;;19.28;100.00;98011.97;5045399;28;20122;-72
2023/07/09 00:27:44;;;;;;;11.18;4.88;;;20.20;99.90;;;19.23;100.00;98014.94;5045061;28;20118;-72
2023/07/09 00:30:18;;;;;;;9.13;4.82;;;20.20;99.90;;;19.34;100.00;98010.69;5044600;28;20053;-72
2023/07/09 00:32:45;;;;;;;11.27;5.57;;;20.20;99.90;;;19.40;100.00;98013.72;5041187;28;20053;-72
2023/07/09 00:35:15;;;;;;;9.73;4.88;;;20.10;99.90;;;19.32;100.00;98018.72;5045317;28;20077;-72
2023/07/09 00:37:44;;;;;;;8.02;5.55;;;20.10;99.90;;;19.31;100.00;98021.44;5027480;28;20513;-72
2023/07/09 00:40:18;;;;;;;8.95;4.25;;;20.10;99.90;;;19.27;100.00;98026.06;5043955;28;20044;-72
2023/07/09 00:42:49;;;;;;;6.20;4.10;;;20.10;99.90;;;19.36;100.00;98022.81;5044601;28;20103;-72
2023/07/09 00:45:25;;;;;;;6.85;4.40;;;20.10;99.90;;;19.32;100.00;98012.63;5041513;28;20057;-72
2023/07/09 00:48:01;;;;;;;12.25;5.10;;;20.10;99.90;;;19.27;100.00;98019.97;5041644;28;20049;-72
2023/07/09 00:50:48;;;;;;;6.97;4.45;;;20.10;99.90;;;19.24;100.00;98021.03;5045472;28;20052;-72
2023/07/09 00:53:25;;;;;;;9.75;4.38;;;20.00;99.90;;;18.99;100.00;98025.38;5030691;28;20132;-72
2023/07/09 00:56:05;;;;;;;9.88;4.85;;;19.90;99.90;;;19.01;100.00;98026.13;5041839;28;20075;-72
2023/07/09 00:58:37;;;;;;;10.82;4.70;;;19.80;99.90;;;19.07;100.00;98029.25;5057774;28;20136;-71
2023/07/09 01:01:12;;;;;;;6.72;4.05;;;19.70;99.90;;;19.05;100.00;98026.75;5038133;28;20897;-72
2023/07/09 01:03:46;;;;;;;8.27;4.32;;;19.70;99.90;;;18.98;100.00;98030.78;5042747;28;20053;-72
2023/07/09 01:06:20;;;;;;;10.50;4.97;;;19.60;99.90;;;18.90;100.00;98033.91;5028351;28;20489;-73
2023/07/09 01:08:53;;;;;;;10.27;5.10;;;19.60;99.90;;;18.76;100.00;98032.22;5044923;28;20077;-72
2023/07/09 01:11:22;;;;;;;7.15;4.60;;;19.60;99.90;;;18.89;100.00;98037.50;5044717;28;20139;-72
2023/07/09 01:14:01;;;;;;;10.93;4.35;;;19.60;99.90;;;18.85;100.00;98033.41;5042150;28;20150;-72
2023/07/09 01:16:33;;;;;;;9.40;4.90;;;19.60;99.90;;;18.83;100.00;98029.19;5043758;28;20059;-72
2023/07/09 01:19:01;;;;;;;7.57;4.07;;;19.60;99.90;;;18.81;100.00;98037.19;5039406;28;20550;-72
2023/07/09 01:21:28;;;;;;;9.63;4.63;;;19.50;99.90;;;18.74;100.00;98033.25;5044045;28;20040;-72
2023/07/09 01:23:57;;;;;;;8.90;4.88;;;19.50;99.90;;;18.73;100.00;98037.69;5044611;28;20049;-72
2023/07/09 01:26:27;;;;;;;10.75;4.97;;;19.50;99.90;;;18.68;100.00;98041.56;5045869;28;20106;-72
2023/07/09 01:28:56;;;;;;;9.70;4.70;;;19.40;99.90;;;18.49;100.00;98042.81;5045656;28;20052;-72
2023/07/09 01:31:23;;;;;;;11.68;5.85;;;19.30;99.90;;;18.49;100.00;98050.69;5041871;28;20057;-71
2023/07/09 01:33:50;;;;;;;10.02;4.70;;;19.20;99.90;;;18.34;100.00;98052.59;5045500;28;20053;-72
2023/07/09 01:36:23;;;;;;;8.23;4.70;;;19.20;99.90;;;18.31;100.00;98054.56;5045011;28;20118;-72
2023/07/09 01:38:56;;;;;;;10.60;5.43;;;19.00;99.90;;;18.20;100.00;98063.19;5041396;28;20487;-72
2023/07/09 01:41:23;;;;;;;9.80;4.57;;;18.90;99.90;;;18.22;100.00;98063.88;5040398;28;20076;-72
2023/07/09 01:43:50;;;;;;;9.15;5.68;;;18.90;99.90;;;18.19;100.00;98064.94;5054754;28;20326;-72
2023/07/09 01:46:17;;;;;;;8.88;5.30;;;18.90;99.90;;;18.11;100.00;98076.88;5042482;28;20140;-72
2023/07/09 01:48:45;;;;;;;12.30;5.28;;;18.90;99.90;;;18.11;100.00;98077.75;5042175;28;20049;-72
2023/07/09 01:51:18;;;;;;;9.95;5.38;;;19.00;99.90;;;18.08;100.00;98077.94;5044026;28;20078;-72
2023/07/09 01:53:45;;;;;;;7.82;4.80;;;19.00;99.90;;;18.33;100.00;98071.91;5042132;28;20079;-72
2023/07/09 01:56:12;;;;;;;6.22;4.20;;;19.10;99.90;;;18.24;100.00;98069.06;5045032;28;20072;-72
2023/07/09 01:58:41;;;;;;;6.70;4.35;;;19.10;99.90;;;18.28;100.00;98070.53;5025298;28;20126;-72
2023/07/09 02:01:10;;;;;;;7.55;4.35;;;19.20;99.90;;;18.26;100.00;98068.00;5038865;28;20509;-72
2023/07/09 02:03:37;;;;;;;7.85;3.95;;;19.10;99.90;;;18.25;100.00;98063.72;5043212;28;20502;-72
2023/07/09 02:06:09;;;;;;;9.20;4.65;;;19.00;99.90;;;18.23;100.00;98067.38;5027506;28;20521;-72
2023/07/09 02:08:37;;;;;;;9.18;4.13;;;18.90;99.90;;;18.23;100.00;98065.59;5042066;28;20346;-72
2023/07/09 02:11:04;;;;;;;8.43;4.50;;;18.90;99.90;;;18.26;100.00;98067.16;5043128;28;20098;-72
2023/07/09 02:13:31;;;;;;;8.57;4.55;;;18.90;99.90;;;18.26;100.00;98067.16;5040171;28;20052;-71
2023/07/09 02:15:58;;;;;;;8.05;3.80;;;18.90;99.90;;;18.35;100.00;98056.03;5026666;28;20036;-72
2023/07/09 02:18:28;;;;;;;7.88;4.47;;;18.90;99.90;;;18.29;100.00;98061.69;5044604;28;20421;-72
2023/07/09 02:20:56;;;;;;;9.85;5.00;;;18.90;99.90;;;18.25;100.00;98065.50;5057295;28;20068;-71
2023/07/09 02:23:27;;;;;;;9.15;4.70;;;18.90;99.90;;;18.09;100.00;98066.50;5040115;28;20126;-72
2023/07/09 02:25:55;;;;;;;11.10;5.18;;;18.80;99.90;;;18.16;100.00;98070.41;5041714;28;20068;-72
2023/07/09 02:28:22;;;;;;;11.00;5.57;;;18.80;99.90;;;18.10;100.00;98062.91;5045313;28;20474;-72
2023/07/09 02:30:49;;;;;;;9.02;4.20;;;18.70;99.90;;;18.09;100.00;98071.75;5043587;28;20073;-72
2023/07/09 02:33:16;;;;;;;7.18;4.40;;;18.70;99.90;;;18.11;100.00;98069.88;5041817;28;20124;-72
2023/07/09 02:35:43;;;;;;;9.48;5.07;;;18.70;99.90;;;18.08;100.00;98074.47;5045432;28;20115;-73
2023/07/09 02:38:10;;;;;;;8.65;5.35;;;18.60;99.90;;;18.08;100.00;98066.59;5043249;28;20073;-73
2023/07/09 02:40:39;;;;;;;8.52;4.47;;;18.60;99.90;;;18.06;100.00;98074.56;5040638;28;20071;-72
2023/07/09 02:43:06;;;;;;;8.57;5.00;;;18.60;99.90;;;17.98;100.00;98076.84;5042245;28;20056;-72
2023/07/09 02:45:33;;;;;;;8.50;4.70;;;18.60;99.90;;;17.95;100.00;98075.28;5038331;28;20060;-72
2023/07/09 02:48:03;;;;;;;9.07;4.13;;;18.60;99.90;;;17.91;100.00;98081.66;5043986;28;20087;-72
2023/07/09 02:50:30;;;;;;;8.43;4.88;;;18.60;99.90;;;17.81;100.00;98082.31;5040448;28;20056;-72
2023/07/09 02:52:57;;;;;;;12.52;5.00;;;18.50;99.90;;;17.76;100.00;98085.22;5044036;28;20140;-72
2023/07/09 02:55:24;;;;;;;9.10;5.03;;;18.50;99.90;;;17.65;100.00;98088.56;5043497;28;20146;-71
2023/07/09 02:57:52;;;;;;;10.40;5.13;;;18.40;99.90;;;17.71;100.00;98096.03;5047397;28;20064;-71
2023/07/09 03:00:19;;;;;;;8.55;4.38;;;18.40;99.90;;;17.74;100.00;98090.59;5030917;28;20544;-72
2023/07/09 03:02:46;;;;;;;7.03;4.65;;;18.40;99.90;;;17.79;100.00;98090.31;5045886;28;20059;-72
2023/07/09 03:05:13;;;;;;;8.77;5.43;;;18.40;99.90;;;17.78;100.00;98092.06;5044152;28;20125;-72
2023/07/09 03:07:40;;;;;;;10.63;5.20;;;18.40;99.90;;;17.73;100.00;98098.56;5030314;28;20085;-72
2023/07/09 03:10:07;;;;;;;7.50;4.47;;;18.40;99.90;;;17.76;100.00;98093.09;5031424;28;20171;-72
2023/07/09 03:12:34;;;;;;;10.90;5.10;;;18.30;99.90;;;17.77;100.00;98098.28;5063108;28;20057;-72
2023/07/09 03:15:01;;;;;;;8.43;4.18;;;18.30;99.90;;;17.76;100.00;98103.59;5043582;28;20114;-72
2023/07/09 03:17:28;;;;;;;7.93;5.13;;;18.30;99.90;;;17.63;100.00;98105.31;5047929;28;20048;-72
2023/07/09 03:19:56;;;;;;;10.15;4.18;;;18.40;99.90;;;17.63;100.00;98102.69;5045674;28;20053;-71
2023/07/09 03:22:23;;;;;;;11.10;4.60;;;18.50;99.90;;;17.64;100.00;98101.78;5048719;28;20053;-72
2023/07/09 03:24:50;;;;;;;8.38;4.03;;;18.50;99.90;;;17.79;100.00;98106.06;5045411;28;20049;-72
2023/07/09 03:27:17;;;;;;;7.47;3.70;;;18.60;99.90;;;17.88;100.00;98108.13;5048386;28;20049;-72
2023/07/09 03:29:44;;;;;;;7.75;4.03;;;18.60;99.90;;;17.89;100.00;98096.66;5049932;28;20112;-72
2023/07/09 03:32:11;;;;;;;8.63;3.88;;;18.50;99.90;;;17.72;100.00;98104.72;5045965;28;20045;-72
2023/07/09 03:34:38;;;;;;;9.52;4.53;;;18.50;99.90;;;17.56;100.00;98104.84;5045430;28;20537;-71
2023/07/09 03:37:05;;;;;;;6.25;4.35;;;18.30;99.90;;;17.30;100.00;98120.44;5048009;28;20056;-72
2023/07/09 03:39:33;;;;;;;8.30;4.72;;;18.20;99.90;;;17.45;100.00;98130.97;5042139;28;20057;-72
2023/07/09 03:42:00;;;;;;;7.38;4.00;;;18.30;99.90;;;17.69;100.00;98133.81;5045449;28;20045;-71
2023/07/09 03:44:27;;;;;;;8.57;4.05;;;18.30;99.90;;;17.74;100.00;98129.13;5044500;28;20110;-71
2023/07/09 03:46:53;;;;;;;11.80;4.90;;;18.40;99.90;;;17.72;100.00;98133.63;5047037;28;20056;-71
2023/07/09 03:49:21;;;;;;;9.38;4.65;;;18.50;99.90;;;17.70;100.00;98122.41;5045903;28;20394;-72
2023/07/09 03:51:48;;;;;;;9.05;5.10;;;18.50;99.90;;;17.77;100.00;98126.31;5040413;28;20115;-71
2023/07/09 03:54:14;;;;;;;9.82;4.15;;;18.60;99.90;;;17.85;100.00;98125.84;5045803;28;20509;-72
2023/07/09 03:56:41;;;;;;;9.48;4.40;;;18.60;99.90;;;17.85;100.00;98121.44;5043460;28;20140;-72
2023/07/09 03:59:08;;;;;;;7.50;4.40;;;18.60;99.90;;;17.87;100.00;98130.06;5043182;28;20468;-71
2023/07/09 04:01:35;;;;;;;9.05;4.53;;;18.70;99.90;;;17.66;100.00;98136.66;5042449;28;20168;-71
2023/07/09 04:04:03;;;;;;;7.53;3.80;;;18.60;99.90;;;17.63;100.00;98135.06;5042053;28;21504;-72
2023/07/09 04:06:30;;;;;;;9.93;5.38;;;18.50;99.90;;;17.50;100.00;98137.59;5028377;28;20073;-71
2023/07/09 04:08:57;;;;;;;9.50;4.35;;;18.50;99.90;;;17.77;100.00;98139.44;5047077;28;20106;-74
2023/07/09 04:11:27;;;;;;;7.03;4.45;;;18.50;99.90;;;17.72;100.00;98141.50;5047415;28;20051;-72
2023/07/09 04:13:54;;;;;;;7.65;4.70;;;18.50;99.90;;;17.76;100.00;98137.75;5042619;28;20045;-71
2023/07/09 04:16:21;;;;;;;8.68;4.55;;;18.50;99.90;;;17.72;100.00;98139.72;5046164;28;20135;-71
2023/07/09 04:18:49;;;;;;;7.43;4.30;;;18.60;99.90;;;17.81;100.00;98130.44;5044049;28;20377;-71
2023/07/09 04:21:16;;;;;;;14.52;4.38;;;18.60;99.90;;;17.86;100.00;98122.28;5042960;28;20221;-71
2023/07/09 04:23:43;;;;;;;7.95;4.07;;;18.60;99.90;;;17.99;100.00;98120.56;5043875;28;20057;-71
2023/07/09 04:26:14;;;;;;;9.77;5.10;;;18.70;99.90;;;17.92;100.00;98124.53;5043899;28;20464;-72
2023/07/09 04:28:41;;;;;;;9.98;4.43;;;18.70;99.90;;;17.78;100.00;98133.25;5046550;28;20139;-72
2023/07/09 04:31:09;;;;;;;11.93;4.47;;;18.70;99.90;;;17.76;100.00;98135.94;5042352;28;20064;-71
2023/07/09 04:33:36;;;;;;;8.52;4.00;;;18.60;99.90;;;17.83;100.00;98135.59;5043366;28;20052;-72
2023/07/09 04:36:06;;;;;;;10.90;4.72;;;18.70;99.90;;;17.95;100.00;98140.09;5042049;28;20045;-71
2023/07/09 04:38:33;;;;;;;7.68;5.00;;;18.70;99.90;;;18.05;100.00;98132.47;5044293;28;20078;-71
2023/07/09 04:41:00;;;;;;;8.05;3.95;;;18.70;99.90;;;18.20;100.00;98131.50;5041147;28;20060;-70
2023/07/09 04:43:27;;;;;;;12.88;4.78;;;18.80;99.90;;;18.30;100.00;98132.56;5042137;28;20443;-71
2023/07/09 04:45:54;;;;;;;8.13;4.80;;;18.90;99.90;;;18.33;100.00;98128.88;5043460;28;20065;-71
2023/07/09 04:48:22;;;;;;;10.35;5.68;;;19.00;99.90;;;18.30;100.00;98126.47;5043124;28;20045;-72
2023/07/09 04:50:50;;;;;;;8.15;4.57;;;19.00;99.90;;;18.45;100.00;98125.47;5043039;28;20550;-71
2023/07/09 04:53:18;;;;;;;11.32;4.07;;;19.10;99.90;;;18.31;100.00;98126.34;5041407;28;20045;-72
2023/07/09 04:55:45;;;;;;;9.55;4.95;;;19.20;99.90;;;18.54;100.00;98124.00;5040416;28;20060;-71
2023/07/09 04:58:12;;;;;;;11.50;4.65;;;19.20;99.90;;;18.64;100.00;98119.81;5026975;28;20565;-71
2023/07/09 05:00:39;;;;;;;8.15;4.90;;;19.30;99.90;;;18.85;100.00;98124.63;5042268;28;20140;-71
2023/07/09 05:03:06;;;;;;;10.45;4.47;;;19.40;99.90;;;18.95;100.00;98115.13;5041954;28;20041;-71
2023/07/09 05:05:34;;;;;;;9.18;3.97;;;19.50;99.90;;;19.09;100.00;98122.97;5039740;28;20195;-71
2023/07/09 05:08:01;;;;;;;6.70;4.45;;;19.60;99.90;;;19.21;100.00;98114.19;5041978;28;20146;-72
2023/07/09 05:10:28;;;;;;;6.72;4.55;;;19.70;99.90;;;19.23;100.00;98109.69;5043287;28;20053;-71
2023/07/09 05:12:56;;;;;;;8.45;4.65;;;19.90;99.90;;;19.19;100.00;98121.34;5040453;28;20049;-71
2023/07/09 05:15:25;;;;;;;8.90;4.65;;;19.90;99.90;;;19.59;100.00;98110.69;5038522;28;20045;-72
2023/07/09 05:17:52;;;;;;;7.55;4.80;;;20.00;99.90;;;19.73;100.00;98101.84;5040846;28;20045;-72
2023/07/09 05:20:21;;;;;;;12.48;5.03;;;20.10;99.90;;;19.79;100.00;98092.63;5040467;28;20079;-70
2023/07/09 05:22:49;;;;;;;8.65;5.03;;;20.30;99.90;;;19.90;100.00;98076.91;5044278;28;20091;-73
2023/07/09 05:25:19;;;;;;;9.80;4.75;;;20.40;99.90;;;20.06;100.00;98072.19;5045052;28;20047;-73
2023/07/09 05:27:46;;;;;;;7.03;4.82;;;20.50;99.90;;;20.21;100.00;98072.03;5043289;28;20049;-73
2023/07/09 05:30:13;;;;;;;7.35;4.80;;;20.50;99.90;;;20.58;100.00;98064.03;5042716;28;20124;-74
2023/07/09 05:32:40;;;;;;;9.30;4.63;;;20.70;99.90;;;20.74;100.00;98055.78;5043062;28;20095;-73
2023/07/09 05:35:08;;;;;;;7.03;4.50;;;20.90;99.90;;;20.88;100.00;98051.13;5045219;28;20134;-73
2023/07/09 05:37:39;;;;;;;7.70;4.38;;;21.20;99.90;;;20.93;100.00;98047.28;5040051;28;20059;-74
2023/07/09 05:40:08;;;;;;;6.88;4.78;;;21.20;99.90;;;20.70;100.00;98052.53;5040309;28;20041;-74
2023/07/09 05:42:35;;;;;;;6.05;4.47;;;21.20;99.90;;;20.73;100.00;98060.19;5045265;28;20150;-73
2023/07/09 05:45:03;;;;;;;8.43;4.78;;;21.20;99.90;;;20.89;100.00;98047.53;5039101;28;20139;-73
2023/07/09 05:47:30;;;;;;;7.88;4.70;;;21.30;99.90;;;20.97;100.00;98046.09;5038817;28;20057;-72
2023/07/09 05:49:57;;;;;;;6.50;4.00;;;21.40;99.90;;;21.27;100.00;98040.22;5042445;28;20060;-72
2023/07/09 05:52:24;;;;;;;6.68;3.90;;;21.50;99.90;;;21.51;100.00;98048.03;5040654;28;20092;-72
2023/07/09 05:54:53;;;;;;;8.07;4.05;;;21.50;99.90;;;21.50;100.00;98041.06;5042918;28;20094;-72
2023/07/09 05:57:21;;;;;;;8.55;4.22;;;21.60;99.90;;;21.77;100.00;98047.72;5038739;28;20111;-72
2023/07/09 05:59:48;;;;;;;7.43;3.90;;;21.60;99.90;;;21.87;100.00;98046.88;5022580;28;20557;-72
2023/07/09 06:02:20;;;;;;;7.60;4.53;;;21.80;99.90;;;21.84;100.00;98044.47;5042853;28;20401;-72
2023/07/09 06:04:50;;;;;;;10.40;4.30;;;22.00;99.90;;;21.78;100.00;98050.25;5022729;28;20587;-72
2023/07/09 06:07:18;;;;;;;7.50;4.05;;;22.10;99.90;;;22.06;100.00;98050.66;5040148;28;20135;-77
2023/07/09 06:09:46;;;;;;;8.63;4.20;;;22.10;99.90;;;22.04;100.00;98044.66;5039890;28;20333;-72
2023/07/09 06:12:13;;;;;;;9.70;4.68;;;22.10;99.90;;;22.15;100.00;98039.31;5037164;28;20056;-72
2023/07/09 06:14:40;;;;;;;9.10;5.22;;;22.10;99.90;;;22.02;100.00;98050.03;5035837;28;20050;-75
2023/07/09 06:17:08;;;;;;;7.45;4.90;;;22.10;99.90;;;22.20;100.00;98052.97;5041433;28;20468;-74
2023/07/09 06:19:35;;;;;;;7.68;4.30;;;22.10;99.90;;;22.33;100.00;98044.91;5041267;28;20053;-74
2023/07/09 06:22:03;;;;;;;6.50;4.65;;;22.20;99.90;;;22.40;100.00;98048.72;5042584;28;20593;-74
2023/07/09 06:24:30;;;;;;;8.93;5.47;;;22.40;99.90;;;22.60;100.00;98035.59;5045713;28;20087;-74
2023/07/09 06:26:58;;;;;;;6.57;4.50;;;22.60;99.90;;;22.79;100.00;98041.03;5045314;28;20474;-72
2023/07/09 06:29:26;;;;;;;6.97;4.15;;;22.80;99.90;;;23.04;100.00;98037.16;5046385;28;20611;-74
2023/07/09 06:31:53;;;;;;;6.57;4.38;;;23.00;99.90;;;23.19;100.00;98027.03;5043991;28;20048;-72
2023/07/09 06:34:20;;;;;;;7.97;4.47;;;23.30;99.90;;;23.42;100.00;98029.47;5044914;28;20076;-72
2023/07/09 06:36:47;;;;;;;7.20;4.65;;;23.40;99.90;;;23.63;100.00;98030.22;5043829;28;20655;-74
2023/07/09 06:39:14;;;;;;;7.35;4.40;;;23.60;99.90;;;23.89;100.00;98025.25;5044582;28;20063;-73
2023/07/09 06:41:42;;;;;;;6.03;3.72;;;23.90;99.90;;;24.29;100.00;98020.78;5045334;28;20053;-74
2023/07/09 06:44:09;;;;;;;7.60;3.97;;;24.10;99.90;;;24.40;100.00;98020.63;5032395;28;20041;-72
2023/07/09 06:46:37;;;;;;;9.88;4.10;;;24.40;99.90;;;24.77;100.00;98014.59;5046686;28;20076;-71
2023/07/09 06:49:07;;;;;;;6.75;3.78;;;24.60;99.90;;;24.93;100.00;98017.50;5045175;28;20045;-70
2023/07/09 06:51:35;;;;;;;7.90;3.72;;;24.90;99.90;;;25.30;100.00;98003.38;5044009;28;20072;-71
2023/07/09 06:54:02;;;;;;;6.72;4.22;;;25.10;99.90;;;25.37;100.00;98011.59;5044784;28;20049;-72
2023/07/09 06:56:29;;;;;;;6.55;3.80;;;25.30;99.90;;;25.52;100.00;98004.81;5044760;28;20057;-71
2023/07/09 06:58:56;;;;;;;6.95;3.53;;;25.60;99.90;;;25.73;100.00;98006.31;5044157;28;20072;-72
2023/07/09 07:01:23;;;;;;;4.97;2.88;;;25.80;99.90;;;26.10;100.00;98008.88;5044399;28;21071;-71
2023/07/09 07:03:50;;;;;;;5.97;3.28;;;26.00;99.90;;;26.25;100.00;98002.03;5026332;28;20049;-71
2023/07/09 07:06:18;;;;;;;9.48;4.15;;;26.20;99.90;;;26.22;100.00;98004.97;5043673;28;20159;-72
2023/07/09 07:08:46;;;;;;;6.65;3.63;;;26.40;99.90;;;26.49;100.00;98006.69;5043508;28;20500;-72
2023/07/09 07:11:13;;;;;;;7.03;3.42;;;26.60;99.90;;;26.45;100.00;98001.81;5043144;28;20103;-72
2023/07/09 07:13:41;;;;;;;7.57;3.55;;;26.80;99.90;;;27.03;100.00;97993.22;5043462;28;20048;-72
2023/07/09 07:16:11;;;;;;;8.15;3.60;;;27.00;99.90;;;26.98;100.00;97986.69;5046787;28;20402;-72
2023/07/09 07:18:42;;;;;;;8.43;3.67;;;27.20;99.90;;;26.70;100.00;97990.38;5061325;28;20056;-76
2023/07/09 07:21:09;;;;;;;7.55;3.70;;;27.30;99.90;;;27.32;100.00;97992.03;5047878;28;20393;-72
2023/07/09 07:23:36;;;;;;;5.93;2.72;;;27.50;99.90;;;27.56;100.00;97983.28;5031053;28;20182;-71
2023/07/09 07:26:03;;;;;;;7.70;2.75;;;27.70;99.90;;;27.67;100.00;97990.97;5047121;28;20290;-72
2023/07/09 07:28:31;;;;;;;7.65;2.90;;;27.80;99.90;;;27.77;100.00;97988.16;5048078;28;20517;-72
2023/07/09 07:31:08;;;;;;;6.53;3.00;;;28.00;99.90;;;27.94;100.00;97983.72;5048397;28;20141;-72
2023/07/09 07:33:35;;;;;;;8.63;2.90;;;28.10;99.90;;;28.24;100.00;97986.72;5037369;28;20076;-72
2023/07/09 07:36:07;;;;;;;4.72;2.72;;;28.30;99.90;;;28.41;100.00;97991.03;5044944;28;20045;-74
2023/07/09 07:38:37;;;;;;;5.63;2.70;;;28.50;99.90;;;28.56;100.00;97996.56;5049553;28;20057;-72
2023/07/09 07:41:05;;;;;;;5.53;2.90;;;28.70;99.90;;;28.82;100.00;97982.97;5045356;28;20098;-73
2023/07/09 07:43:32;;;;;;;7.10;2.90;;;28.90;99.90;;;29.08;100.00;97988.13;5046526;28;20047;-72
2023/07/09 07:45:59;;;;;;;8.68;2.88;;;29.00;99.90;;;29.20;100.00;97985.91;5048883;28;20056;-72
2023/07/09 07:48:26;;;;;;;8.32;3.13;;;29.20;99.90;;;28.79;100.00;97988.69;5042578;28;20052;-70
2023/07/09 07:51:03;;;;;;;9.00;2.70;;;29.20;99.90;;;28.85;100.00;97984.47;5039899;28;20048;-72
2023/07/09 07:53:33;;;;;;;7.25;2.85;;;29.20;99.90;;;28.69;100.00;97990.69;5043980;28;20064;-72
2023/07/09 07:56:02;;;;;;;7.30;3.28;;;29.20;99.90;;;29.00;100.00;97988.09;5046803;28;20133;-72
2023/07/09 07:58:32;;;;;;;7.65;3.10;;;29.30;99.90;;;28.99;100.00;97986.47;5043101;28;20114;-72
2023/07/09 08:00:59;;;;;;;10.68;3.53;;;29.20;99.90;;;28.72;100.00;97998.38;5044120;28;20680;-71
2023/07/09 08:03:27;;;;;;;7.75;3.22;;;29.10;99.90;;;28.97;100.00;97989.28;5045576;28;20053;-72
2023/07/09 08:05:55;;;;;;;7.28;2.78;;;29.00;99.80;;;29.09;100.00;97987.09;5045437;28;20512;-72
2023/07/09 08:08:24;;;;;;;8.70;3.13;;;29.00;99.90;;;29.15;100.00;97986.41;5044655;28;20167;-72
2023/07/09 08:10:51;;;;;;;6.50;3.03;;;29.10;99.90;;;29.58;100.00;97983.34;5047081;28;20063;-71
2023/07/09 08:13:19;;;;;;;5.53;3.20;;;29.40;99.90;;;29.35;100.00;97980.63;5042037;28;20053;-71
2023/07/09 08:15:46;;;;;;;7.03;3.38;;;29.60;99.90;;;29.44;100.00;97984.94;5046131;28;20570;-72
2023/07/09 08:18:14;;;;;;;5.32;2.58;;;29.70;99.90;;;29.71;100.00;97983.63;5041058;28;20046;-72
2023/07/09 08:20:45;;;;;;;7.50;3.22;;;29.80;99.90;;;30.25;100.00;97989.94;5047460;28;20122;-71
2023/07/09 08:23:12;;;;;;;6.65;2.92;;;30.10;99.90;;;30.22;100.00;97985.75;5034192;28;20505;-72
2023/07/09 08:25:39;;;;;;;8.98;2.88;;;30.40;99.90;;;30.24;100.00;97986.41;5046474;28;20076;-72
2023/07/09 08:28:06;;;;;;;11.52;3.17;;;30.30;99.70;;;30.15;100.00;97980.31;5043004;28;20403;-70
2023/07/09 08:30:34;;;;;;;7.85;2.85;;;30.40;98.90;;;30.21;100.00;97981.44;5038600;28;20153;-72
2023/07/09 08:33:01;;;;;;;8.10;2.85;;;30.40;98.90;;;30.25;100.00;97979.25;5023189;28;20052;-72
2023/07/09 08:35:28;;;;;;;4.68;2.80;;;30.20;98.20;;;30.20;100.00;97979.78;5046360;28;20052;-72
2023/07/09 08:38:03;;;;;;;4.90;3.10;;;30.20;98.70;;;30.50;100.00;97982.56;5044631;28;20037;-72
2023/07/09 08:40:31;;;;;;;7.60;3.17;;;30.40;98.90;;;30.42;100.00;97975.41;5042601;28;20057;-72
2023/07/09 08:43:25;;;;;;;6.85;3.22;;;30.50;97.60;;;31.24;100.00;97958.44;5044027;28;20052;-72
2023/07/09 08:46:10;;;;;;;6.35;2.95;;;30.80;97.00;;;32.07;100.00;97951.75;5036198;28;20041;-72
2023/07/09 08:48:44;;;;;;;5.50;2.80;;;31.30;97.40;;;32.02;100.00;97956.03;5043477;28;20128;-72
2023/07/09 08:51:38;;;;;;;5.63;2.97;;;31.20;95.80;;;31.65;100.00;97948.00;5045906;28;20566;-72
2023/07/09 08:54:21;;;;;;;7.75;3.05;;;31.10;95.10;;;32.18;100.00;97952.22;5037044;28;20509;-73
2023/07/09 08:56:49;;;;;;;9.07;3.15;;;31.30;96.00;;;32.60;100.00;97955.91;5057323;28;20045;-71
2023/07/09 08:59:19;;;;;;;5.63;3.30;;;31.60;94.90;;;32.76;100.00;97950.19;5041075;28;20488;-72
2023/07/09 09:01:57;;;;;;;6.45;2.78;;;31.90;94.70;;;32.15;100.00;97958.00;5032963;28;20317;-72
2023/07/09 09:04:29;;;;;;;7.50;3.17;;;32.20;94.50;;;32.92;100.00;97951.72;5029575;28;20052;-72
2023/07/09 09:07:28;;;;;;;6.65;2.95;;;32.40;93.80;;;34.02;100.00;97949.81;5040034;28;20434;-72
2023/07/09 09:10:01;;;;;;;6.57;3.28;;;33.10;94.50;;;34.09;100.00;97947.13;5040523;28;20642;-72
2023/07/09 09:13:15;;;;;;;6.07;2.58;;;33.80;93.10;;;34.18;100.00;97951.31;5044420;28;20125;-72
2023/07/09 09:15:46;;;;;;;7.05;2.95;;;33.90;91.20;;;33.32;100.00;97942.00;5028362;28;20581;-72
2023/07/09 09:18:26;;;;;;;6.43;3.17;;;33.50;91.20;;;33.73;100.00;97943.81;5041861;28;20057;-73
2023/07/09 09:21:23;;;;;;;4.80;2.17;;;34.10;91.60;;;34.22;100.00;97941.78;5039425;28;20067;-72
2023/07/09 09:23:54;;;;;;;4.88;2.58;;;35.00;90.20;;;34.16;100.00;97940.75;5023006;28;20501;-72
2023/07/09 09:26:33;;;;;;;7.00;2.60;;;35.10;88.30;;;35.01;99.91;97940.00;5042881;28;20547;-72
2023/07/09 09:29:01;;;;;;;6.63;2.60;;;35.60;88.60;;;35.02;90.36;97936.25;5044657;28;20107;-72
2023/07/09 09:31:29;;;;;;;4.60;2.42;;;36.50;84.30;;;35.35;91.00;97932.59;5040289;28;20049;-72
2023/07/09 09:33:57;;;;;;;6.07;2.55;;;36.90;83.00;;;35.70;92.58;97927.69;5044627;28;20053;-72
2023/07/09 09:36:26;;;;;;;5.47;2.53;;;37.10;82.90;;;35.40;91.43;97920.13;5041024;28;20140;-73
2023/07/09 09:38:54;;;;;;;4.40;2.50;;;37.40;81.50;;;34.89;89.73;97925.53;5045858;28;20053;-72
2023/07/09 09:41:26;;;;;;;9.68;2.42;;;36.80;79.90;;;34.78;92.27;97935.09;5041610;28;20095;-72
2023/07/09 09:43:54;;;;;;;5.47;2.67;;;36.30;80.40;;;35.54;87.27;97920.88;5041371;28;20056;-72
2023/07/09 09:46:29;;;;;;;4.53;2.50;;;36.40;79.20;;;34.04;90.22;97928.91;5034103;28;20135;-72
2023/07/09 09:49:01;;;;;;;9.73;2.58;;;36.10;78.10;;;35.03;90.45;97916.31;5045423;28;20059;-72
2023/07/09 09:51:28;;;;;;;5.47;2.47;;;36.40;79.10;;;35.04;88.17;97917.19;5041148;28;20045;-73
2023/07/09 09:54:00;;;;;;;4.85;2.50;;;36.50;78.40;;;35.20;85.09;97911.31;5043406;28;20240;-73
2023/07/09 09:56:33;;;;;;;3.90;2.25;;;36.10;77.70;;;35.43;91.90;97913.47;5042531;28;20069;-72
2023/07/09 09:59:02;;;;;;;5.90;2.17;;;35.90;80.10;;;35.99;84.27;97912.72;5042674;28;20045;-73
2023/07/09 10:01:34;;;;;;;6.05;2.67;;;36.50;77.30;;;35.54;84.49;97915.50;5039241;28;20115;-70
2023/07/09 10:04:05;;;;;;;4.25;2.45;;;36.20;76.70;;;34.92;88.43;97912.44;5042254;28;20045;-72
2023/07/09 10:06:46;;;;;;;8.88;3.05;;;35.90;77.60;;;34.85;89.36;97916.19;5023508;28;20080;-71
2023/07/09 10:09:40;;;;;;;6.13;2.90;;;35.90;77.70;;;34.89;89.33;97915.56;5041039;28;20052;-73
2023/07/09 10:12:36;;;;;;;6.82;2.60;;;35.60;78.00;;;34.90;83.04;97913.72;5040791;28;20102;-73
2023/07/09 10:15:54;;;;;;;5.82;2.83;;;36.00;76.00;;;36.15;79.23;97908.66;5039764;28;20044;-73
2023/07/09 10:18:43;;;;;;;7.82;3.00;;;36.50;75.90;;;35.64;75.73;97903.41;5041267;28;20045;-73
2023/07/09 10:21:23;;;;;;;5.80;3.22;;;35.80;73.70;;;34.97;76.13;97903.72;5036829;28;20041;-73
2023/07/09 10:24:05;;;;;;;4.15;2.13;;;35.70;73.40;;;36.23;74.80;97902.97;5038555;28;20048;-73
2023/07/09 10:26:36;;;;;;;5.43;2.20;;;35.20;74.70;;;35.66;74.29;97901.31;5040787;28;20048;-72